sensor_id;sensor_type;location;lat;lon;timestamp;temperature;humidity
1680;DHT22;838;51.794;12.258;2023-03-16T00:02:00;1.20;17.00
1680;DHT22;838;51.794;12.258;2023-03-16T00:04:26;1.10;16.70
1680;DHT22;838;51.794;12.258;2023-03-16T00:06:52;1.00;17.50
1680;DHT22;838;51.794;12.258;2023-03-16T00:09:17;0.70;18.30
1680;DHT22;838;51.794;12.258;2023-03-16T00:11:43;0.70;18.80
1680;DHT22;838;51.794;12.258;2023-03-16T00:14:09;0.90;18.30
1680;DHT22;838;51.794;12.258;2023-03-16T00:16:34;0.90;18.40
1680;DHT22;838;51.794;12.258;2023-03-16T00:19:01;0.90;18.10
1680;DHT22;838;51.794;12.258;2023-03-16T00:21:28;0.90;18.20
1680;DHT22;838;51.794;12.258;2023-03-16T00:23:59;1.30;18.10
1680;DHT22;838;51.794;12.258;2023-03-16T00:26:25;1.20;17.00
1680;DHT22;838;51.794;12.258;2023-03-16T00:28:51;1.10;16.80
1680;DHT22;838;51.794;12.258;2023-03-16T00:31:18;0.90;17.10
1680;DHT22;838;51.794;12.258;2023-03-16T00:33:44;0.70;17.90
1680;DHT22;838;51.794;12.258;2023-03-16T00:36:11;0.50;18.50
1680;DHT22;838;51.794;12.258;2023-03-16T00:38:39;0.30;19.40
1680;DHT22;838;51.794;12.258;2023-03-16T00:41:09;0.20;20.30
1680;DHT22;838;51.794;12.258;2023-03-16T00:43:36;-0.10;20.90
1680;DHT22;838;51.794;12.258;2023-03-16T00:46:15;-0.50;22.50
1680;DHT22;838;51.794;12.258;2023-03-16T00:48:44;-0.70;24.90
1680;DHT22;838;51.794;12.258;2023-03-16T00:51:12;-0.60;25.90
1680;DHT22;838;51.794;12.258;2023-03-16T00:53:40;-0.70;26.50
1680;DHT22;838;51.794;12.258;2023-03-16T00:56:07;-0.50;27.90
1680;DHT22;838;51.794;12.258;2023-03-16T00:58:35;-0.80;28.20
1680;DHT22;838;51.794;12.258;2023-03-16T01:01:06;-1.00;28.10
1680;DHT22;838;51.794;12.258;2023-03-16T01:03:32;-1.20;29.60
1680;DHT22;838;51.794;12.258;2023-03-16T01:06:06;-1.30;30.90
1680;DHT22;838;51.794;12.258;2023-03-16T01:08:32;-1.20;32.80
1680;DHT22;838;51.794;12.258;2023-03-16T01:11:20;-1.00;33.00
1680;DHT22;838;51.794;12.258;2023-03-16T01:13:47;-1.10;33.00
1680;DHT22;838;51.794;12.258;2023-03-16T01:16:15;-1.00;31.70
1680;DHT22;838;51.794;12.258;2023-03-16T01:18:43;-0.90;30.80
1680;DHT22;838;51.794;12.258;2023-03-16T01:21:09;-0.90;30.60
1680;DHT22;838;51.794;12.258;2023-03-16T01:23:38;-1.00;30.80
1680;DHT22;838;51.794;12.258;2023-03-16T01:26:04;-1.10;31.00
1680;DHT22;838;51.794;12.258;2023-03-16T01:28:31;-1.20;31.30
1680;DHT22;838;51.794;12.258;2023-03-16T01:31:06;-1.30;32.50
1680;DHT22;838;51.794;12.258;2023-03-16T01:33:32;-1.20;34.20
1680;DHT22;838;51.794;12.258;2023-03-16T01:36:04;-1.10;34.80
1680;DHT22;838;51.794;12.258;2023-03-16T01:38:30;-0.70;33.40
1680;DHT22;838;51.794;12.258;2023-03-16T01:40:56;-0.30;31.20
1680;DHT22;838;51.794;12.258;2023-03-16T01:43:24;-0.30;28.20
1680;DHT22;838;51.794;12.258;2023-03-16T01:49:03;-0.80;28.10
1680;DHT22;838;51.794;12.258;2023-03-16T01:51:40;-1.00;29.50
1680;DHT22;838;51.794;12.258;2023-03-16T01:59:43;-1.20;33.30
1680;DHT22;838;51.794;12.258;2023-03-16T02:02:12;-1.20;32.30
1680;DHT22;838;51.794;12.258;2023-03-16T02:07:19;-1.40;34.40
1680;DHT22;838;51.794;12.258;2023-03-16T02:09:48;-1.30;34.50
1680;DHT22;838;51.794;12.258;2023-03-16T02:12:15;-1.50;35.10
1680;DHT22;838;51.794;12.258;2023-03-16T02:14:45;-1.60;35.80
1680;DHT22;838;51.794;12.258;2023-03-16T02:17:14;-1.50;36.50
1680;DHT22;838;51.794;12.258;2023-03-16T02:22:59;-1.30;35.00
1680;DHT22;838;51.794;12.258;2023-03-16T02:25:35;-1.20;34.50
1680;DHT22;838;51.794;12.258;2023-03-16T02:31:13;-1.10;33.80
1680;DHT22;838;51.794;12.258;2023-03-16T02:33:40;-1.00;33.10
1680;DHT22;838;51.794;12.258;2023-03-16T02:36:07;-1.20;33.00
1680;DHT22;838;51.794;12.258;2023-03-16T02:38:33;-1.20;33.30
1680;DHT22;838;51.794;12.258;2023-03-16T02:41:15;-1.10;33.10
1680;DHT22;838;51.794;12.258;2023-03-16T02:44:01;-0.80;32.40
1680;DHT22;838;51.794;12.258;2023-03-16T02:46:29;-0.50;30.00
1680;DHT22;838;51.794;12.258;2023-03-16T02:49:24;-0.30;28.10
1680;DHT22;838;51.794;12.258;2023-03-16T02:51:51;-0.40;28.00
1680;DHT22;838;51.794;12.258;2023-03-16T02:54:17;-0.20;26.90
1680;DHT22;838;51.794;12.258;2023-03-16T02:56:43;-0.10;26.40
1680;DHT22;838;51.794;12.258;2023-03-16T02:59:09;0.10;25.60
1680;DHT22;838;51.794;12.258;2023-03-16T03:01:36;0.30;24.20
1680;DHT22;838;51.794;12.258;2023-03-16T03:04:03;0.40;23.30
1680;DHT22;838;51.794;12.258;2023-03-16T03:06:29;0.40;22.30
1680;DHT22;838;51.794;12.258;2023-03-16T03:08:57;0.40;21.70
1680;DHT22;838;51.794;12.258;2023-03-16T03:11:22;0.50;21.50
1680;DHT22;838;51.794;12.258;2023-03-16T03:13:48;0.50;21.30
1680;DHT22;838;51.794;12.258;2023-03-16T03:16:14;0.60;20.10
1680;DHT22;838;51.794;12.258;2023-03-16T03:18:40;0.60;20.60
1680;DHT22;838;51.794;12.258;2023-03-16T03:21:06;0.70;20.00
1680;DHT22;838;51.794;12.258;2023-03-16T03:23:33;0.70;19.80
1680;DHT22;838;51.794;12.258;2023-03-16T03:26:02;0.70;19.70
1680;DHT22;838;51.794;12.258;2023-03-16T03:28:29;0.70;18.90
1680;DHT22;838;51.794;12.258;2023-03-16T03:30:55;0.80;18.60
1680;DHT22;838;51.794;12.258;2023-03-16T03:33:21;0.80;18.00
1680;DHT22;838;51.794;12.258;2023-03-16T03:35:57;0.90;18.00
1680;DHT22;838;51.794;12.258;2023-03-16T03:38:24;0.90;17.80
1680;DHT22;838;51.794;12.258;2023-03-16T03:40:51;0.50;18.20
1680;DHT22;838;51.794;12.258;2023-03-16T03:43:17;0.20;19.60
1680;DHT22;838;51.794;12.258;2023-03-16T03:45:43;0.10;19.80
1680;DHT22;838;51.794;12.258;2023-03-16T03:48:09;0.20;19.60
1680;DHT22;838;51.794;12.258;2023-03-16T03:50:35;0.40;19.60
1680;DHT22;838;51.794;12.258;2023-03-16T03:53:03;0.30;19.50
1680;DHT22;838;51.794;12.258;2023-03-16T03:55:28;0.40;18.40
1680;DHT22;838;51.794;12.258;2023-03-16T03:57:54;0.10;18.30
1680;DHT22;838;51.794;12.258;2023-03-16T04:00:20;-0.20;19.00
1680;DHT22;838;51.794;12.258;2023-03-16T04:02:47;-0.40;20.20
1680;DHT22;838;51.794;12.258;2023-03-16T04:05:12;-0.40;20.80
1680;DHT22;838;51.794;12.258;2023-03-16T04:07:38;-0.40;21.20
1680;DHT22;838;51.794;12.258;2023-03-16T04:10:06;-0.50;21.80
1680;DHT22;838;51.794;12.258;2023-03-16T04:12:31;-0.70;22.80
1680;DHT22;838;51.794;12.258;2023-03-16T04:14:57;-0.80;24.10
1680;DHT22;838;51.794;12.258;2023-03-16T04:17:23;-0.70;24.20
1680;DHT22;838;51.794;12.258;2023-03-16T04:19:49;-0.80;25.40
1680;DHT22;838;51.794;12.258;2023-03-16T04:22:15;-0.90;26.00
1680;DHT22;838;51.794;12.258;2023-03-16T04:24:40;-1.00;26.90
1680;DHT22;838;51.794;12.258;2023-03-16T04:27:08;-1.00;27.30
1680;DHT22;838;51.794;12.258;2023-03-16T04:29:37;-0.90;28.00
1680;DHT22;838;51.794;12.258;2023-03-16T04:32:05;-0.90;28.80
1680;DHT22;838;51.794;12.258;2023-03-16T04:34:30;-1.00;28.30
1680;DHT22;838;51.794;12.258;2023-03-16T04:36:56;-0.90;29.00
1680;DHT22;838;51.794;12.258;2023-03-16T04:39:22;-1.20;29.80
1680;DHT22;838;51.794;12.258;2023-03-16T04:41:48;-1.20;31.00
1680;DHT22;838;51.794;12.258;2023-03-16T04:44:14;-1.00;32.10
1680;DHT22;838;51.794;12.258;2023-03-16T04:46:39;-1.00;30.60
1680;DHT22;838;51.794;12.258;2023-03-16T04:49:05;-1.00;30.30
1680;DHT22;838;51.794;12.258;2023-03-16T04:51:37;-1.00;29.90
1680;DHT22;838;51.794;12.258;2023-03-16T04:54:05;-1.10;29.70
1680;DHT22;838;51.794;12.258;2023-03-16T04:56:31;-1.20;31.30
1680;DHT22;838;51.794;12.258;2023-03-16T04:58:57;-1.20;32.20
1680;DHT22;838;51.794;12.258;2023-03-16T05:01:22;-1.00;30.80
1680;DHT22;838;51.794;12.258;2023-03-16T05:03:48;-1.10;29.90
1680;DHT22;838;51.794;12.258;2023-03-16T05:06:14;-1.10;30.20
1680;DHT22;838;51.794;12.258;2023-03-16T05:08:40;-1.00;30.20
1680;DHT22;838;51.794;12.258;2023-03-16T05:11:06;-0.70;30.60
1680;DHT22;838;51.794;12.258;2023-03-16T05:13:32;-0.80;29.40
1680;DHT22;838;51.794;12.258;2023-03-16T05:15:58;-0.70;28.50
1680;DHT22;838;51.794;12.258;2023-03-16T05:18:24;-0.80;29.10
1680;DHT22;838;51.794;12.258;2023-03-16T05:20:51;-0.80;28.50
1680;DHT22;838;51.794;12.258;2023-03-16T05:23:18;-0.90;29.40
1680;DHT22;838;51.794;12.258;2023-03-16T05:25:48;-0.90;29.90
1680;DHT22;838;51.794;12.258;2023-03-16T05:28:14;-0.90;29.90
1680;DHT22;838;51.794;12.258;2023-03-16T05:30:41;-0.90;30.00
1680;DHT22;838;51.794;12.258;2023-03-16T05:33:07;-1.00;30.20
1680;DHT22;838;51.794;12.258;2023-03-16T05:35:33;-1.00;30.80
1680;DHT22;838;51.794;12.258;2023-03-16T05:37:59;-1.00;31.10
1680;DHT22;838;51.794;12.258;2023-03-16T05:40:24;-1.00;32.20
1680;DHT22;838;51.794;12.258;2023-03-16T05:42:54;-1.00;32.60
1680;DHT22;838;51.794;12.258;2023-03-16T05:45:20;-0.90;33.90
1680;DHT22;838;51.794;12.258;2023-03-16T05:47:46;-0.70;33.90
1680;DHT22;838;51.794;12.258;2023-03-16T05:50:14;-0.50;34.30
1680;DHT22;838;51.794;12.258;2023-03-16T05:52:42;-0.30;33.20
1680;DHT22;838;51.794;12.258;2023-03-16T05:55:10;-0.20;32.70
1680;DHT22;838;51.794;12.258;2023-03-16T05:57:36;-0.20;30.80
1680;DHT22;838;51.794;12.258;2023-03-16T06:00:05;-0.10;31.90
1680;DHT22;838;51.794;12.258;2023-03-16T06:02:46;0.20;32.80
1680;DHT22;838;51.794;12.258;2023-03-16T06:05:12;0.50;33.70
1680;DHT22;838;51.794;12.258;2023-03-16T06:07:38;0.90;32.20
1680;DHT22;838;51.794;12.258;2023-03-16T06:10:04;1.30;32.90
1680;DHT22;838;51.794;12.258;2023-03-16T06:12:31;1.40;29.10
1680;DHT22;838;51.794;12.258;2023-03-16T06:14:56;1.50;27.30
1680;DHT22;838;51.794;12.258;2023-03-16T06:17:22;1.70;26.00
1680;DHT22;838;51.794;12.258;2023-03-16T06:19:49;2.00;24.70
1680;DHT22;838;51.794;12.258;2023-03-16T06:22:15;2.60;24.20
1680;DHT22;838;51.794;12.258;2023-03-16T06:24:42;3.30;19.20
1680;DHT22;838;51.794;12.258;2023-03-16T06:27:08;4.10;16.60
1680;DHT22;838;51.794;12.258;2023-03-16T06:29:34;4.50;12.60
1680;DHT22;838;51.794;12.258;2023-03-16T06:31:59;4.60;11.20
1680;DHT22;838;51.794;12.258;2023-03-16T06:34:25;5.10;10.90
1680;DHT22;838;51.794;12.258;2023-03-16T06:36:51;6.00;7.90
1680;DHT22;838;51.794;12.258;2023-03-16T06:39:17;6.10;6.10
1680;DHT22;838;51.794;12.258;2023-03-16T06:41:42;6.60;5.00
1680;DHT22;838;51.794;12.258;2023-03-16T06:44:09;6.80;2.50
1680;DHT22;838;51.794;12.258;2023-03-16T06:46:36;6.70;2.50
1680;DHT22;838;51.794;12.258;2023-03-16T06:49:03;6.60;1.60
1680;DHT22;838;51.794;12.258;2023-03-16T06:51:29;6.70;1.70
1680;DHT22;838;51.794;12.258;2023-03-16T06:53:56;6.80;1.70
1680;DHT22;838;51.794;12.258;2023-03-16T06:56:21;6.70;1.00
1680;DHT22;838;51.794;12.258;2023-03-16T06:58:47;6.50;1.00
1680;DHT22;838;51.794;12.258;2023-03-16T07:01:13;6.10;1.50
1680;DHT22;838;51.794;12.258;2023-03-16T07:03:39;5.80;2.20
1680;DHT22;838;51.794;12.258;2023-03-16T07:06:06;5.40;3.80
1680;DHT22;838;51.794;12.258;2023-03-16T07:08:34;5.10;4.80
1680;DHT22;838;51.794;12.258;2023-03-16T07:11:00;4.90;5.90
1680;DHT22;838;51.794;12.258;2023-03-16T07:13:26;5.00;7.20
1680;DHT22;838;51.794;12.258;2023-03-16T07:15:52;5.20;6.70
1680;DHT22;838;51.794;12.258;2023-03-16T07:18:18;5.00;6.80
1680;DHT22;838;51.794;12.258;2023-03-16T07:20:44;4.80;7.50
1680;DHT22;838;51.794;12.258;2023-03-16T07:23:10;4.50;9.10
1680;DHT22;838;51.794;12.258;2023-03-16T07:25:37;4.30;9.80
1680;DHT22;838;51.794;12.258;2023-03-16T07:28:02;4.20;10.90
1680;DHT22;838;51.794;12.258;2023-03-16T07:30:29;4.10;11.60
1680;DHT22;838;51.794;12.258;2023-03-16T07:32:55;4.10;12.10
1680;DHT22;838;51.794;12.258;2023-03-16T07:35:20;4.30;13.00
1680;DHT22;838;51.794;12.258;2023-03-16T07:37:46;4.20;13.20
1680;DHT22;838;51.794;12.258;2023-03-16T07:40:13;4.00;12.10
1680;DHT22;838;51.794;12.258;2023-03-16T07:42:39;3.60;14.30
1680;DHT22;838;51.794;12.258;2023-03-16T07:45:05;3.60;16.80
1680;DHT22;838;51.794;12.258;2023-03-16T07:47:31;3.70;16.00
1680;DHT22;838;51.794;12.258;2023-03-16T07:49:58;3.60;16.10
1680;DHT22;838;51.794;12.258;2023-03-16T07:52:24;3.40;16.20
1680;DHT22;838;51.794;12.258;2023-03-16T07:54:50;3.30;16.90
1680;DHT22;838;51.794;12.258;2023-03-16T07:57:16;3.30;17.40
1680;DHT22;838;51.794;12.258;2023-03-16T07:59:42;3.30;17.80
1680;DHT22;838;51.794;12.258;2023-03-16T08:02:16;3.40;18.60
1680;DHT22;838;51.794;12.258;2023-03-16T08:04:42;3.50;17.00
1680;DHT22;838;51.794;12.258;2023-03-16T08:07:10;3.70;16.30
1680;DHT22;838;51.794;12.258;2023-03-16T08:09:36;3.90;14.90
1680;DHT22;838;51.794;12.258;2023-03-16T08:12:06;4.10;15.50
1680;DHT22;838;51.794;12.258;2023-03-16T08:14:32;4.40;14.60
1680;DHT22;838;51.794;12.258;2023-03-16T08:17:01;4.90;11.90
1680;DHT22;838;51.794;12.258;2023-03-16T08:19:28;5.00;9.20
1680;DHT22;838;51.794;12.258;2023-03-16T08:21:53;5.00;12.00
1680;DHT22;838;51.794;12.258;2023-03-16T08:24:19;5.10;11.50
1680;DHT22;838;51.794;12.258;2023-03-16T08:26:45;5.20;11.30
1680;DHT22;838;51.794;12.258;2023-03-16T08:29:12;5.20;10.00
1680;DHT22;838;51.794;12.258;2023-03-16T08:31:38;5.40;10.40
1680;DHT22;838;51.794;12.258;2023-03-16T08:34:04;5.60;8.90
1680;DHT22;838;51.794;12.258;2023-03-16T08:36:30;5.70;7.90
1680;DHT22;838;51.794;12.258;2023-03-16T08:38:55;6.10;6.90
1680;DHT22;838;51.794;12.258;2023-03-16T08:41:21;6.40;7.90
1680;DHT22;838;51.794;12.258;2023-03-16T08:43:48;6.80;6.00
1680;DHT22;838;51.794;12.258;2023-03-16T08:46:13;7.00;5.80
1680;DHT22;838;51.794;12.258;2023-03-16T08:48:40;7.40;6.00
1680;DHT22;838;51.794;12.258;2023-03-16T08:51:07;7.50;2.30
1680;DHT22;838;51.794;12.258;2023-03-16T08:53:34;8.00;1.00
1680;DHT22;838;51.794;12.258;2023-03-16T08:56:05;9.10;1.00
1680;DHT22;838;51.794;12.258;2023-03-16T08:58:32;10.10;1.00
1680;DHT22;838;51.794;12.258;2023-03-16T09:00:59;11.50;1.00
1680;DHT22;838;51.794;12.258;2023-03-16T09:03:25;11.60;1.00
1680;DHT22;838;51.794;12.258;2023-03-16T09:05:52;12.50;1.00
1680;DHT22;838;51.794;12.258;2023-03-16T09:08:18;13.80;1.00
1680;DHT22;838;51.794;12.258;2023-03-16T09:10:44;14.60;1.00
1680;DHT22;838;51.794;12.258;2023-03-16T09:13:10;13.80;1.00
1680;DHT22;838;51.794;12.258;2023-03-16T09:15:36;13.60;1.00
1680;DHT22;838;51.794;12.258;2023-03-16T09:18:04;14.30;1.00
1680;DHT22;838;51.794;12.258;2023-03-16T09:20:30;14.30;1.00
1680;DHT22;838;51.794;12.258;2023-03-16T09:22:56;14.60;1.00
1680;DHT22;838;51.794;12.258;2023-03-16T09:25:23;15.10;1.00
1680;DHT22;838;51.794;12.258;2023-03-16T09:27:50;15.20;1.00
1680;DHT22;838;51.794;12.258;2023-03-16T09:30:17;15.10;1.00
1680;DHT22;838;51.794;12.258;2023-03-16T09:32:44;15.80;1.00
1680;DHT22;838;51.794;12.258;2023-03-16T09:35:13;13.30;1.00
1680;DHT22;838;51.794;12.258;2023-03-16T09:37:39;12.10;1.00
1680;DHT22;838;51.794;12.258;2023-03-16T09:40:05;10.90;1.00
1680;DHT22;838;51.794;12.258;2023-03-16T09:42:37;10.00;1.00
1680;DHT22;838;51.794;12.258;2023-03-16T09:47:39;9.40;1.00
1680;DHT22;838;51.794;12.258;2023-03-16T09:50:09;9.20;1.00
1680;DHT22;838;51.794;12.258;2023-03-16T09:52:47;8.40;1.00
1680;DHT22;838;51.794;12.258;2023-03-16T09:58:23;8.20;1.00
1680;DHT22;838;51.794;12.258;2023-03-16T10:12:42;8.40;1.00
1680;DHT22;838;51.794;12.258;2023-03-16T10:17:50;8.00;1.00
1680;DHT22;838;51.794;12.258;2023-03-16T10:20:20;8.20;1.00
1680;DHT22;838;51.794;12.258;2023-03-16T10:22:48;8.40;1.00
1680;DHT22;838;51.794;12.258;2023-03-16T10:27:48;8.30;1.00
1680;DHT22;838;51.794;12.258;2023-03-16T10:32:46;8.80;1.00
1680;DHT22;838;51.794;12.258;2023-03-16T10:37:56;8.30;1.00
1680;DHT22;838;51.794;12.258;2023-03-16T10:40:23;8.50;1.00
1680;DHT22;838;51.794;12.258;2023-03-16T10:42:49;8.40;1.00
1680;DHT22;838;51.794;12.258;2023-03-16T10:45:29;8.10;1.00
1680;DHT22;838;51.794;12.258;2023-03-16T10:48:17;8.10;1.00
1680;DHT22;838;51.794;12.258;2023-03-16T10:50:48;8.40;1.00
1680;DHT22;838;51.794;12.258;2023-03-16T10:53:35;8.60;1.00
1680;DHT22;838;51.794;12.258;2023-03-16T10:56:19;8.60;1.00
1680;DHT22;838;51.794;12.258;2023-03-16T10:58:47;8.40;1.00
1680;DHT22;838;51.794;12.258;2023-03-16T11:01:27;8.30;1.00
1680;DHT22;838;51.794;12.258;2023-03-16T11:03:55;8.10;1.00
1680;DHT22;838;51.794;12.258;2023-03-16T11:06:28;8.30;1.00
1680;DHT22;838;51.794;12.258;2023-03-16T11:09:17;8.50;1.00
1680;DHT22;838;51.794;12.258;2023-03-16T11:11:48;8.50;1.00
1680;DHT22;838;51.794;12.258;2023-03-16T11:14:14;8.40;1.00
1680;DHT22;838;51.794;12.258;2023-03-16T11:17:06;8.40;1.00
1680;DHT22;838;51.794;12.258;2023-03-16T11:19:40;8.60;1.00
1680;DHT22;838;51.794;12.258;2023-03-16T11:22:18;8.60;1.00
1680;DHT22;838;51.794;12.258;2023-03-16T11:27:57;8.30;1.00
1680;DHT22;838;51.794;12.258;2023-03-16T11:30:32;8.30;1.00
1680;DHT22;838;51.794;12.258;2023-03-16T11:33:00;8.30;1.00
1680;DHT22;838;51.794;12.258;2023-03-16T11:35:46;8.50;1.00
1680;DHT22;838;51.794;12.258;2023-03-16T11:38:54;8.50;1.00
1680;DHT22;838;51.794;12.258;2023-03-16T11:41:55;8.60;1.00
1680;DHT22;838;51.794;12.258;2023-03-16T11:44:36;8.50;1.00
1680;DHT22;838;51.794;12.258;2023-03-16T11:50:13;8.40;1.00
1680;DHT22;838;51.794;12.258;2023-03-16T11:53:06;8.40;1.00
1680;DHT22;838;51.794;12.258;2023-03-16T11:56:02;8.50;1.00
1680;DHT22;838;51.794;12.258;2023-03-16T12:09:44;8.60;1.00
1680;DHT22;838;51.794;12.258;2023-03-16T12:15:16;8.70;1.00
1680;DHT22;838;51.794;12.258;2023-03-16T12:17:45;8.70;1.00
1680;DHT22;838;51.794;12.258;2023-03-16T12:22:46;9.00;1.00
1680;DHT22;838;51.794;12.258;2023-03-16T12:25:22;9.00;1.00
1680;DHT22;838;51.794;12.258;2023-03-16T12:27:59;8.90;1.00
1680;DHT22;838;51.794;12.258;2023-03-16T12:36:32;8.90;1.00
1680;DHT22;838;51.794;12.258;2023-03-16T12:39:05;9.00;1.00
1680;DHT22;838;51.794;12.258;2023-03-16T12:49:38;8.80;1.00
1680;DHT22;838;51.794;12.258;2023-03-16T12:52:09;9.00;1.00
1680;DHT22;838;51.794;12.258;2023-03-16T12:54:51;9.20;1.00
1680;DHT22;838;51.794;12.258;2023-03-16T12:57:18;9.10;1.00
1680;DHT22;838;51.794;12.258;2023-03-16T12:59:46;9.00;1.00
1680;DHT22;838;51.794;12.258;2023-03-16T13:02:17;9.10;1.00
1680;DHT22;838;51.794;12.258;2023-03-16T13:04:46;9.20;1.00
1680;DHT22;838;51.794;12.258;2023-03-16T13:07:18;9.20;1.00
1680;DHT22;838;51.794;12.258;2023-03-16T13:09:50;9.10;1.00
1680;DHT22;838;51.794;12.258;2023-03-16T13:12:29;9.00;1.00
1680;DHT22;838;51.794;12.258;2023-03-16T13:14:57;9.10;1.00
1680;DHT22;838;51.794;12.258;2023-03-16T13:17:31;9.10;1.00
1680;DHT22;838;51.794;12.258;2023-03-16T13:20:30;9.10;1.00
1680;DHT22;838;51.794;12.258;2023-03-16T13:25:55;9.20;1.00
1680;DHT22;838;51.794;12.258;2023-03-16T13:28:34;9.30;1.00
1680;DHT22;838;51.794;12.258;2023-03-16T13:31:01;9.10;1.00
1680;DHT22;838;51.794;12.258;2023-03-16T13:33:30;9.30;1.00
1680;DHT22;838;51.794;12.258;2023-03-16T13:35:58;9.30;1.00
1680;DHT22;838;51.794;12.258;2023-03-16T13:38:26;9.40;1.00
1680;DHT22;838;51.794;12.258;2023-03-16T13:40:55;9.30;1.00
1680;DHT22;838;51.794;12.258;2023-03-16T13:43:27;9.20;1.00
1680;DHT22;838;51.794;12.258;2023-03-16T13:46:15;9.40;1.00
1680;DHT22;838;51.794;12.258;2023-03-16T13:48:42;9.60;1.00
1680;DHT22;838;51.794;12.258;2023-03-16T13:51:17;9.70;1.00
1680;DHT22;838;51.794;12.258;2023-03-16T13:53:43;9.90;1.00
1680;DHT22;838;51.794;12.258;2023-03-16T13:56:14;10.00;1.00
1680;DHT22;838;51.794;12.258;2023-03-16T13:58:46;9.90;1.00
1680;DHT22;838;51.794;12.258;2023-03-16T14:01:27;9.50;1.00
1680;DHT22;838;51.794;12.258;2023-03-16T14:03:57;9.50;1.00
1680;DHT22;838;51.794;12.258;2023-03-16T14:06:25;9.60;1.00
1680;DHT22;838;51.794;12.258;2023-03-16T14:08:53;9.60;1.00
1680;DHT22;838;51.794;12.258;2023-03-16T14:11:20;9.30;1.00
1680;DHT22;838;51.794;12.258;2023-03-16T14:13:54;9.50;1.00
1680;DHT22;838;51.794;12.258;2023-03-16T14:16:22;9.40;1.00
1680;DHT22;838;51.794;12.258;2023-03-16T14:21:43;9.60;1.00
1680;DHT22;838;51.794;12.258;2023-03-16T14:24:31;9.60;1.00
1680;DHT22;838;51.794;12.258;2023-03-16T14:32:52;9.50;1.00
1680;DHT22;838;51.794;12.258;2023-03-16T14:35:20;9.50;1.00
1680;DHT22;838;51.794;12.258;2023-03-16T14:37:46;9.50;1.00
1680;DHT22;838;51.794;12.258;2023-03-16T14:40:24;9.50;1.00
1680;DHT22;838;51.794;12.258;2023-03-16T14:42:51;9.60;1.00
1680;DHT22;838;51.794;12.258;2023-03-16T14:45:17;9.60;1.00
1680;DHT22;838;51.794;12.258;2023-03-16T14:47:47;9.50;1.00
1680;DHT22;838;51.794;12.258;2023-03-16T14:50:24;9.60;1.00
1680;DHT22;838;51.794;12.258;2023-03-16T14:52:53;9.60;1.00
1680;DHT22;838;51.794;12.258;2023-03-16T14:55:20;9.50;1.00
1680;DHT22;838;51.794;12.258;2023-03-16T14:57:47;9.40;1.00
1680;DHT22;838;51.794;12.258;2023-03-16T15:00:16;9.40;1.00
1680;DHT22;838;51.794;12.258;2023-03-16T15:02:46;9.40;1.00
1680;DHT22;838;51.794;12.258;2023-03-16T15:05:20;9.40;1.00
1680;DHT22;838;51.794;12.258;2023-03-16T15:07:51;9.40;1.00
1680;DHT22;838;51.794;12.258;2023-03-16T15:10:26;9.40;1.00
1680;DHT22;838;51.794;12.258;2023-03-16T15:12:53;9.40;1.00
1680;DHT22;838;51.794;12.258;2023-03-16T15:15:29;9.30;1.00
1680;DHT22;838;51.794;12.258;2023-03-16T15:17:54;9.30;1.00
1680;DHT22;838;51.794;12.258;2023-03-16T15:20:34;9.40;1.00
1680;DHT22;838;51.794;12.258;2023-03-16T15:23:03;9.50;1.00
1680;DHT22;838;51.794;12.258;2023-03-16T15:25:35;9.60;1.00
1680;DHT22;838;51.794;12.258;2023-03-16T15:28:22;9.50;1.00
1680;DHT22;838;51.794;12.258;2023-03-16T15:30:59;9.30;1.00
1680;DHT22;838;51.794;12.258;2023-03-16T15:33:25;9.20;1.00
1680;DHT22;838;51.794;12.258;2023-03-16T15:35:55;9.10;1.00
1680;DHT22;838;51.794;12.258;2023-03-16T15:38:28;9.00;1.00
1680;DHT22;838;51.794;12.258;2023-03-16T15:40:55;8.90;1.00
1680;DHT22;838;51.794;12.258;2023-03-16T15:43:24;8.90;1.00
1680;DHT22;838;51.794;12.258;2023-03-16T15:45:52;8.90;1.00
1680;DHT22;838;51.794;12.258;2023-03-16T15:48:19;8.90;1.00
1680;DHT22;838;51.794;12.258;2023-03-16T15:54:07;8.80;1.00
1680;DHT22;838;51.794;12.258;2023-03-16T15:56:37;8.80;1.00
1680;DHT22;838;51.794;12.258;2023-03-16T15:59:10;8.80;1.00
1680;DHT22;838;51.794;12.258;2023-03-16T16:01:41;8.80;1.00
1680;DHT22;838;51.794;12.258;2023-03-16T16:04:16;8.80;1.00
1680;DHT22;838;51.794;12.258;2023-03-16T16:06:44;8.80;1.00
1680;DHT22;838;51.794;12.258;2023-03-16T16:09:11;8.80;1.00
1680;DHT22;838;51.794;12.258;2023-03-16T16:11:37;8.80;1.00
1680;DHT22;838;51.794;12.258;2023-03-16T16:14:04;8.80;1.00
1680;DHT22;838;51.794;12.258;2023-03-16T16:16:30;8.70;1.00
1680;DHT22;838;51.794;12.258;2023-03-16T16:18:58;8.70;1.00
1680;DHT22;838;51.794;12.258;2023-03-16T16:21:26;8.70;1.00
1680;DHT22;838;51.794;12.258;2023-03-16T16:23:56;8.70;1.00
1680;DHT22;838;51.794;12.258;2023-03-16T16:26:33;8.70;1.00
1680;DHT22;838;51.794;12.258;2023-03-16T16:29:04;8.70;1.00
1680;DHT22;838;51.794;12.258;2023-03-16T16:31:33;8.70;1.00
1680;DHT22;838;51.794;12.258;2023-03-16T16:33:58;8.60;1.00
1680;DHT22;838;51.794;12.258;2023-03-16T16:36:24;8.60;1.00
1680;DHT22;838;51.794;12.258;2023-03-16T16:38:50;8.60;1.00
1680;DHT22;838;51.794;12.258;2023-03-16T16:41:25;8.60;1.00
1680;DHT22;838;51.794;12.258;2023-03-16T16:43:52;8.60;1.00
1680;DHT22;838;51.794;12.258;2023-03-16T16:46:20;8.60;1.00
1680;DHT22;838;51.794;12.258;2023-03-16T16:48:57;8.60;1.00
1680;DHT22;838;51.794;12.258;2023-03-16T16:51:26;8.40;1.00
1680;DHT22;838;51.794;12.258;2023-03-16T16:53:54;8.50;1.00
1680;DHT22;838;51.794;12.258;2023-03-16T16:56:27;8.50;1.00
1680;DHT22;838;51.794;12.258;2023-03-16T16:58:58;8.40;1.00
1680;DHT22;838;51.794;12.258;2023-03-16T17:01:30;8.30;1.00
1680;DHT22;838;51.794;12.258;2023-03-16T17:03:57;8.20;1.00
1680;DHT22;838;51.794;12.258;2023-03-16T17:06:23;8.20;1.00
1680;DHT22;838;51.794;12.258;2023-03-16T17:08:49;8.20;1.00
1680;DHT22;838;51.794;12.258;2023-03-16T17:11:27;8.10;1.00
1680;DHT22;838;51.794;12.258;2023-03-16T17:13:57;8.10;1.00
1680;DHT22;838;51.794;12.258;2023-03-16T17:16:23;8.10;1.00
1680;DHT22;838;51.794;12.258;2023-03-16T17:18:53;8.10;1.00
1680;DHT22;838;51.794;12.258;2023-03-16T17:21:24;8.10;1.00
1680;DHT22;838;51.794;12.258;2023-03-16T17:23:51;8.10;1.00
1680;DHT22;838;51.794;12.258;2023-03-16T17:26:21;8.10;1.00
1680;DHT22;838;51.794;12.258;2023-03-16T17:28:54;8.10;1.00
1680;DHT22;838;51.794;12.258;2023-03-16T17:31:27;8.00;1.00
1680;DHT22;838;51.794;12.258;2023-03-16T17:33:56;8.00;1.00
1680;DHT22;838;51.794;12.258;2023-03-16T17:36:23;7.90;1.00
1680;DHT22;838;51.794;12.258;2023-03-16T17:38:49;7.90;1.00
1680;DHT22;838;51.794;12.258;2023-03-16T17:41:22;7.80;1.00
1680;DHT22;838;51.794;12.258;2023-03-16T17:43:50;7.80;1.00
1680;DHT22;838;51.794;12.258;2023-03-16T17:46:18;7.80;1.00
1680;DHT22;838;51.794;12.258;2023-03-16T17:48:45;7.80;1.00
1680;DHT22;838;51.794;12.258;2023-03-16T17:51:14;7.80;1.00
1680;DHT22;838;51.794;12.258;2023-03-16T17:53:41;7.80;1.00
1680;DHT22;838;51.794;12.258;2023-03-16T17:58:40;7.70;1.00
1680;DHT22;838;51.794;12.258;2023-03-16T18:01:09;7.70;1.00
1680;DHT22;838;51.794;12.258;2023-03-16T18:03:35;7.70;1.00
1680;DHT22;838;51.794;12.258;2023-03-16T18:06:01;7.70;1.00
1680;DHT22;838;51.794;12.258;2023-03-16T18:08:28;7.60;1.00
1680;DHT22;838;51.794;12.258;2023-03-16T18:10:59;7.60;1.00
1680;DHT22;838;51.794;12.258;2023-03-16T18:13:30;7.60;1.00
1680;DHT22;838;51.794;12.258;2023-03-16T18:15:57;7.60;1.00